Clarkrange, TN

7:28 PM CDT on April 21, 2015 (GMT -0500)
Pottersville | | Change Station
CLOSE
Current Station
Personal Weather Station
Location: Crossville, TN
Elevation: 1811 ft
Nearby Weather Stations

Elev 1811 ft 36.01 °N, 84.95 °W | Updated 12 minutes ago

Partly Cloudy
Partly Cloudy
57.7 °F
Feels Like 57.7 °F
N
2.2
Wind Variable Wind from SW

Today
High -- | Low -- °F
--% Chance of Precip.
Yesterday
High -- | Low -- °F
Precip. -- in
5:59 AM 7:18 PM
Waxing Crescent, 13% visible
Pressure 29.90 in
Visibility 10.0 miles
Clouds Clear
Dew Point 32 °F
Humidity 38%
Rainfall 0.01 in
Snow Depth Not available.
UV 0 out of 12
Pollen 10.40 out of 12
Air Quality Not available.
Flu Activity Sporadic
METAR KCSV 212353Z AUTO VRB04KT 10SM CLR 16/M02 A2991 RMK AO2 SLP123 T01561017 10178 20150 58010

More Conditions Fewer Conditions

Pressure 29.90 in
Visibility 10.0 miles
Clouds Clear
Dew Point 32 °F
Humidity 38%
Rainfall 0.01 in
Snow Depth Not available.
UV 0 out of 12
Pollen 10.40 out of 12
Air Quality Not available.
Flu Activity Sporadic
METAR KCSV 212353Z AUTO VRB04KT 10SM CLR 16/M02 A2991 RMK AO2 SLP123 T01561017 10178 20150 58010

More Conditions Fewer Conditions

10-Day Weather Forecast

Almanac

Astronomy

Apr. 21, 2015 Rise Set
Actual Time
Civil Twilight
Nautical Twilight
Astronomical Twilight
Moon
Length of Visible Light
Length of Day
Tomorrow will be .
, % of the Moon is Illuminated

Today's Extremes

State Highs State Lows

Community

WunderPhotos

Upload Photos

1,815,588 photos uploaded!

WunderBlogs® & News

Nearby

Air Quality

  Air Quality AQ Index Pollutant
Not available.

Snow Depth

Station Depth Elevation

Earthquake Activity

City Distance Mag. Time & Date
Minimum magnitude displayed is 2.5.

Coastal Water Temperatures

Place Temperature

Stations

Nearby Weather Stations

Station Location Temp. Windchill Dew Point Humidity Wind Precip. Elev Updated Type